Killeen-Fort Hood Regional, TX

5:28 PM CST on December 27, 2014 (GMT -0600)
Fort Hood | Change Station
CLOSE
Current Station
Airport
Location: Fort Hood,
Elevation: 1014 ft
Nearby Weather Stations

Elev 1014 ft 31.07 °N, 97.83 °W | Updated 5 minutes ago

Overcast
Overcast
39 °F
Feels Like 30 °F
N
20
Wind Variable Wind from NNW

Today
High -- | Low -- °F
--% Chance of Precip.
Yesterday
High -- | Low -- °F
Precip. -- in
7:28 AM 5:36 PM
Waxing Crescent, 41% visible
Pressure 30.21 in
Visibility 10.0 miles
Clouds Mostly Cloudy 1600 ft
Overcast 3900 ft
Windchill 30 °F
Dew Point 36 °F
Humidity 87%
Rainfall 0.02 in
Snow Depth Not available.
UV 0 out of 12
Pollen 9.60 out of 12
Air Quality Not available.
Flu Activity Not available.
SPECI KGRK 272323Z AUTO 33017KT 10SM BKN016 OVC039 04/02 A3021 RMK AO2 CIG 016V039 BKN V SCT

More Conditions Fewer Conditions

Pressure 30.21 in
Visibility 10.0 miles
Clouds Mostly Cloudy 1600 ft
Overcast 3900 ft
Windchill 30 °F
Dew Point 36 °F
Humidity 87%
Rainfall 0.02 in
Snow Depth Not available.
UV 0 out of 12
Pollen 9.60 out of 12
Air Quality Not available.
Flu Activity Not available.
SPECI KGRK 272323Z AUTO 33017KT 10SM BKN016 OVC039 04/02 A3021 RMK AO2 CIG 016V039 BKN V SCT

More Conditions Fewer Conditions

Nowcast | as of 3:18 PM CST on December 27, 2014

An area of rain continues to slide east this afternoon. At 3 PM the area was located either side of a line from Waco to Paris. Total rainfall amounts for areas that do receive rain will generally be light...and likely less than one tenth of an inch. A few areas of very small sleet may also fall out of heavier showers...but with temperatures above freezing no impacts are expected. In addition...very isolated thunder may be heard this afternoon in this line of precipitation as an occasional cell grows tall enough to produce lightning.

×

10-Day Weather Forecast

Almanac

Astronomy

Dec. 27, 2014 Rise Set
Actual Time
Civil Twilight
Nautical Twilight
Astronomical Twilight
Moon
Length of Visible Light
Length of Day
Tomorrow will be .
, % of the Moon is Illuminated

Today's Extremes

State Highs State Lows

Community

WunderPhotos

Upload Photos

1,781,102 photos uploaded!

WunderBlogs® & News

Nearby

Air Quality

  Air Quality AQ Index Pollutant
Not available.

Snow Depth

Station Depth Elevation

Earthquake Activity

City Distance Mag. Time & Date
Minimum magnitude displayed is 2.5.

Coastal Water Temperatures

Place Temperature

Nearby Weather Stations